createdAt,value
2017-11-07T00:00:15.993Z,0
2017-11-07T00:01:26.450Z,0
2017-11-07T00:02:36.948Z,0
2017-11-07T00:03:47.416Z,0
2017-11-07T00:04:57.877Z,0
2017-11-07T00:06:08.311Z,0
2017-11-07T00:07:18.805Z,0
2017-11-07T00:08:29.267Z,0
2017-11-07T00:09:39.847Z,0
2017-11-07T00:10:49.960Z,0
2017-11-07T00:12:00.440Z,0
2017-11-07T00:13:11.009Z,0
2017-11-07T00:14:21.625Z,0
2017-11-07T00:15:32.078Z,0
2017-11-07T00:16:42.264Z,0
2017-11-07T00:17:52.692Z,0
2017-11-07T00:19:03.187Z,0
2017-11-07T00:20:13.719Z,0
2017-11-07T00:21:24.154Z,0
2017-11-07T00:22:34.628Z,0
2017-11-07T00:23:45.105Z,0
2017-11-07T00:24:55.566Z,0
2017-11-07T00:26:07.011Z,0
2017-11-07T00:27:17.474Z,0
2017-11-07T00:28:27.974Z,0
2017-11-07T00:29:38.443Z,0
2017-11-07T00:30:48.882Z,0
2017-11-07T00:31:59.531Z,0
2017-11-07T00:33:09.654Z,0
2017-11-07T00:34:20.161Z,0
2017-11-07T00:35:30.215Z,0
2017-11-07T00:36:40.733Z,0
2017-11-07T00:37:51.180Z,0
2017-11-07T00:39:01.722Z,0
2017-11-07T00:40:12.048Z,0
2017-11-07T00:41:22.566Z,0
2017-11-07T00:42:32.672Z,0
2017-11-07T00:43:43.127Z,0
2017-11-07T00:44:53.592Z,0
2017-11-07T00:46:04.108Z,0
2017-11-07T00:47:14.692Z,0
2017-11-07T00:48:25.156Z,0
2017-11-07T00:49:35.611Z,0
2017-11-07T00:50:45.725Z,0
2017-11-07T00:51:55.872Z,0
2017-11-07T00:53:06.315Z,0
2017-11-07T00:54:16.744Z,0
2017-11-07T00:55:27.371Z,0
2017-11-07T00:56:38.016Z,0
2017-11-07T00:57:48.585Z,0
2017-11-07T00:58:58.680Z,0
2017-11-07T01:00:09.164Z,0
2017-11-07T01:01:19.604Z,0
2017-11-07T01:02:29.850Z,0
2017-11-07T01:03:40.009Z,0
2017-11-07T01:04:50.015Z,0
2017-11-07T01:06:00.149Z,0
2017-11-07T01:07:10.575Z,0
2017-11-07T01:08:20.722Z,0
2017-11-07T01:09:31.172Z,0
2017-11-07T01:10:41.682Z,0
2017-11-07T01:11:52.179Z,0
2017-11-07T01:13:02.401Z,0
2017-11-07T01:14:12.845Z,0
2017-11-07T01:15:23.540Z,0
2017-11-07T01:16:34.018Z,0
2017-11-07T01:17:44.449Z,0
2017-11-07T01:18:54.881Z,0
2017-11-07T01:20:05.440Z,0
2017-11-07T01:21:15.912Z,0
2017-11-07T01:22:26.368Z,0
2017-11-07T01:23:36.414Z,0
2017-11-07T01:24:46.848Z,0
2017-11-07T01:25:57.312Z,0
2017-11-07T01:27:07.755Z,0
2017-11-07T01:28:18.241Z,0
2017-11-07T01:29:28.398Z,0
2017-11-07T01:30:38.832Z,0
2017-11-07T01:31:48.955Z,0
2017-11-07T01:32:59.411Z,0
2017-11-07T01:34:09.914Z,0
2017-11-07T01:35:20.356Z,0
2017-11-07T01:36:31.015Z,0
2017-11-07T01:37:41.507Z,0
2017-11-07T01:38:51.624Z,0
2017-11-07T01:40:02.094Z,0
2017-11-07T01:41:12.560Z,0
2017-11-07T01:42:23.019Z,0
2017-11-07T01:43:33.145Z,0
2017-11-07T01:44:43.586Z,0
2017-11-07T01:45:54.059Z,0
2017-11-07T01:47:04.494Z,0
2017-11-07T01:48:14.976Z,0
2017-11-07T01:49:25.405Z,0
2017-11-07T01:50:35.875Z,0
2017-11-07T01:51:46.382Z,0
2017-11-07T01:52:56.832Z,0
2017-11-07T01:54:07.251Z,0
2017-11-07T01:55:17.717Z,0
2017-11-07T01:56:27.863Z,0
2017-11-07T01:57:38.299Z,0
2017-11-07T01:58:48.418Z,0
2017-11-07T01:59:59.144Z,0
2017-11-07T02:01:09.591Z,0
2017-11-07T02:02:19.610Z,0
2017-11-07T02:03:30.040Z,0
2017-11-07T02:04:40.514Z,0
2017-11-07T02:05:50.941Z,0
2017-11-07T02:07:00.773Z,0
2017-11-07T02:08:11.291Z,0
2017-11-07T02:09:21.791Z,0
2017-11-07T02:10:32.239Z,0
2017-11-07T02:11:42.348Z,0
2017-11-07T02:12:52.466Z,0
2017-11-07T02:14:02.927Z,0
2017-11-07T02:15:13.388Z,0
2017-11-07T02:16:23.188Z,0
2017-11-07T02:17:33.306Z,0
2017-11-07T02:18:43.739Z,0
2017-11-07T02:19:54.160Z,0
2017-11-07T02:21:04.870Z,0
2017-11-07T02:22:15.301Z,0
2017-11-07T02:23:25.736Z,0
2017-11-07T02:24:36.235Z,0
2017-11-07T02:25:46.692Z,0
2017-11-07T02:26:57.173Z,0
2017-11-07T02:28:07.608Z,0
2017-11-07T02:29:18.123Z,0
2017-11-07T02:30:28.585Z,0
2017-11-07T02:31:39.130Z,0
2017-11-07T02:32:49.242Z,0
2017-11-07T02:33:59.687Z,0
2017-11-07T02:35:10.209Z,0
2017-11-07T02:36:20.679Z,0
2017-11-07T02:37:31.174Z,0
2017-11-07T02:38:41.833Z,0
2017-11-07T02:39:52.305Z,0
2017-11-07T02:41:02.790Z,0
2017-11-07T02:42:13.000Z,0
2017-11-07T02:43:23.134Z,0
2017-11-07T02:44:33.260Z,0
2017-11-07T02:45:43.713Z,0
2017-11-07T02:46:54.151Z,0
2017-11-07T02:48:04.656Z,0
2017-11-07T02:49:15.130Z,0
2017-11-07T02:50:25.577Z,0
2017-11-07T02:51:35.739Z,0
2017-11-07T02:52:46.204Z,0
2017-11-07T02:53:56.276Z,0
2017-11-07T02:55:06.818Z,0
2017-11-07T02:56:17.257Z,0
2017-11-07T02:57:27.724Z,0
2017-11-07T02:58:38.143Z,0
2017-11-07T02:59:48.718Z,0
2017-11-07T03:00:59.163Z,0
2017-11-07T03:02:09.597Z,0
2017-11-07T03:03:19.756Z,0
2017-11-07T03:04:30.266Z,0
2017-11-07T03:05:40.736Z,0
2017-11-07T03:06:51.260Z,0
2017-11-07T03:08:01.294Z,0
2017-11-07T03:09:11.734Z,0
2017-11-07T03:10:22.213Z,0
2017-11-07T03:11:32.224Z,0
2017-11-07T03:12:42.711Z,0
2017-11-07T03:13:52.818Z,0
2017-11-07T03:15:03.240Z,0
2017-11-07T03:16:13.713Z,0
2017-11-07T03:17:24.362Z,0
2017-11-07T03:18:34.471Z,0
2017-11-07T03:19:44.962Z,0
2017-11-07T03:20:55.392Z,0
2017-11-07T03:22:05.843Z,0
2017-11-07T03:23:16.653Z,0
2017-11-07T03:24:27.109Z,0
2017-11-07T03:25:37.712Z,0
2017-11-07T03:26:47.416Z,0
2017-11-07T03:27:57.863Z,0
2017-11-07T03:29:08.402Z,0
2017-11-07T03:30:18.511Z,0
2017-11-07T03:31:28.948Z,0
2017-11-07T03:32:39.413Z,0
2017-11-07T03:33:49.430Z,0
2017-11-07T03:34:59.893Z,0
2017-11-07T03:36:10.500Z,0
2017-11-07T03:37:20.606Z,0
2017-11-07T03:38:31.037Z,0
2017-11-07T03:39:41.476Z,0
2017-11-07T03:40:51.922Z,0
2017-11-07T03:42:02.374Z,0
2017-11-07T03:43:12.820Z,0
2017-11-07T03:44:23.278Z,0
2017-11-07T03:45:33.754Z,0
2017-11-07T03:46:44.205Z,0
2017-11-07T03:47:54.695Z,0
2017-11-07T03:49:05.124Z,0
2017-11-07T03:50:15.845Z,0
2017-11-07T03:51:26.295Z,0
2017-11-07T03:52:36.780Z,0
2017-11-07T03:53:47.328Z,0
2017-11-07T03:54:57.773Z,0
2017-11-07T03:56:08.236Z,0
2017-11-07T03:57:18.696Z,0
2017-11-07T03:58:28.827Z,0
2017-11-07T03:59:39.276Z,0
2017-11-07T04:00:49.712Z,0
2017-11-07T04:01:59.489Z,0
2017-11-07T04:03:09.954Z,0
2017-11-07T04:04:20.409Z,0
2017-11-07T04:05:30.973Z,0
2017-11-07T04:06:41.407Z,0
2017-11-07T04:07:51.981Z,0
2017-11-07T04:09:02.499Z,0
2017-11-07T04:10:12.940Z,0
2017-11-07T04:11:23.394Z,0
2017-11-07T04:12:33.821Z,0
2017-11-07T04:13:44.270Z,0
2017-11-07T04:14:54.736Z,0
2017-11-07T04:16:05.208Z,0
2017-11-07T04:17:15.673Z,0
2017-11-07T04:18:26.108Z,0
2017-11-07T04:19:37.032Z,0
2017-11-07T04:20:47.467Z,0
2017-11-07T04:21:57.927Z,0
2017-11-07T04:23:08.378Z,0
2017-11-07T04:24:18.897Z,0
2017-11-07T04:25:29.040Z,0
2017-11-07T04:26:39.487Z,0
2017-11-07T04:27:49.927Z,0
2017-11-07T04:28:59.950Z,0
2017-11-07T04:30:10.424Z,0
2017-11-07T04:31:20.844Z,0
2017-11-07T04:32:31.276Z,0
2017-11-07T04:33:41.729Z,0
2017-11-07T04:34:52.392Z,0
2017-11-07T04:36:02.848Z,0
2017-11-07T04:37:13.020Z,0
2017-11-07T04:38:22.879Z,0
2017-11-07T04:39:33.413Z,0
2017-11-07T04:40:43.865Z,0
2017-11-07T04:41:54.342Z,0
2017-11-07T04:43:04.785Z,0
2017-11-07T04:44:15.263Z,0
2017-11-07T04:45:25.695Z,0
2017-11-07T04:46:35.815Z,0
2017-11-07T04:47:45.955Z,0
2017-11-07T04:48:56.457Z,0
2017-11-07T04:50:06.884Z,0
2017-11-07T04:51:17.325Z,0
2017-11-07T04:52:27.788Z,0
2017-11-07T04:53:38.441Z,0
2017-11-07T04:54:48.585Z,0
2017-11-07T04:55:59.017Z,0
2017-11-07T04:57:09.460Z,0
2017-11-07T04:58:19.942Z,0
2017-11-07T04:59:30.388Z,0
2017-11-07T05:00:40.821Z,0
2017-11-07T05:01:51.251Z,0
2017-11-07T05:03:01.788Z,0
2017-11-07T05:04:12.230Z,0
2017-11-07T05:05:22.694Z,0
2017-11-07T05:06:33.150Z,0
2017-11-07T05:07:43.169Z,0
2017-11-07T05:08:53.277Z,0
2017-11-07T05:10:03.783Z,0
2017-11-07T05:11:14.329Z,0
2017-11-07T05:12:24.795Z,0
2017-11-07T05:13:35.251Z,0
2017-11-07T05:14:45.707Z,0
2017-11-07T05:15:55.894Z,0
2017-11-07T05:17:06.464Z,0
2017-11-07T05:18:16.539Z,0
2017-11-07T05:19:27.135Z,0
2017-11-07T05:20:37.779Z,0
2017-11-07T05:21:48.231Z,0
2017-11-07T05:22:58.688Z,0
2017-11-07T05:24:09.148Z,0
2017-11-07T05:25:19.371Z,0
2017-11-07T05:26:29.501Z,0
2017-11-07T05:27:39.630Z,0
2017-11-07T05:28:50.152Z,0
2017-11-07T05:30:00.753Z,0
2017-11-07T05:31:11.314Z,0
2017-11-07T05:32:21.784Z,0
2017-11-07T05:33:32.459Z,0
2017-11-07T05:34:42.954Z,0
2017-11-07T05:35:53.426Z,0
2017-11-07T05:37:03.945Z,0
2017-11-07T05:38:14.374Z,0
2017-11-07T05:39:24.518Z,0
2017-11-07T05:40:34.978Z,0
2017-11-07T05:41:45.416Z,0
2017-11-07T05:42:55.868Z,0
2017-11-07T05:44:06.401Z,0
2017-11-07T05:45:16.869Z,0
2017-11-07T05:46:27.327Z,0
2017-11-07T05:47:37.773Z,0
2017-11-07T05:48:48.221Z,4
2017-11-07T05:49:58.674Z,4
2017-11-07T05:51:09.122Z,0
2017-11-07T05:52:19.249Z,0
2017-11-07T05:53:29.677Z,4
2017-11-07T05:54:39.849Z,4
2017-11-07T05:55:50.304Z,4
2017-11-07T05:57:00.968Z,8
2017-11-07T05:58:11.424Z,4
2017-11-07T05:59:21.894Z,4
2017-11-07T06:00:32.492Z,8
2017-11-07T06:01:42.984Z,12
2017-11-07T06:02:53.422Z,12
2017-11-07T06:04:04.196Z,12
2017-11-07T06:05:14.627Z,16
2017-11-07T06:06:25.063Z,20
2017-11-07T06:07:35.617Z,20
2017-11-07T06:08:46.185Z,28
2017-11-07T06:09:56.625Z,32
2017-11-07T06:11:07.143Z,36
2017-11-07T06:12:16.930Z,40
2017-11-07T06:13:27.401Z,44
2017-11-07T06:14:37.920Z,56
2017-11-07T06:15:48.027Z,72
2017-11-07T06:16:58.596Z,88
2017-11-07T06:18:09.072Z,88
2017-11-07T06:19:19.498Z,84
2017-11-07T06:20:30.058Z,88
2017-11-07T06:21:40.499Z,96
2017-11-07T06:22:50.942Z,96
2017-11-07T06:24:01.379Z,104
2017-11-07T06:25:11.498Z,116
2017-11-07T06:26:22.938Z,128
2017-11-07T06:27:33.420Z,140
2017-11-07T06:28:43.882Z,148
2017-11-07T06:29:54.371Z,164
2017-11-07T06:31:04.515Z,180
2017-11-07T06:32:15.118Z,188
2017-11-07T06:33:25.260Z,212
2017-11-07T06:34:35.738Z,240
2017-11-07T06:35:45.865Z,276
2017-11-07T06:36:55.803Z,288
2017-11-07T06:38:06.323Z,304
2017-11-07T06:39:16.799Z,340
2017-11-07T06:40:27.242Z,356
2017-11-07T06:41:37.713Z,364
2017-11-07T06:42:48.235Z,400
2017-11-07T06:43:58.095Z,416
2017-11-07T06:45:08.581Z,460
2017-11-07T06:46:19.082Z,476
2017-11-07T06:47:29.573Z,488
2017-11-07T06:48:40.004Z,516
2017-11-07T06:49:50.584Z,560
2017-11-07T06:51:01.044Z,588
2017-11-07T06:52:11.482Z,612
2017-11-07T06:53:21.962Z,584
2017-11-07T06:54:32.456Z,592
2017-11-07T06:55:42.932Z,580
2017-11-07T06:56:52.933Z,672
2017-11-07T06:58:03.374Z,656
2017-11-07T06:59:13.828Z,576
2017-11-07T07:00:24.438Z,632
2017-11-07T07:01:34.968Z,728
2017-11-07T07:02:45.217Z,800
2017-11-07T07:03:55.710Z,760
2017-11-07T07:05:07.159Z,616
2017-11-07T07:06:17.600Z,620
2017-11-07T07:07:28.030Z,740
2017-11-07T07:08:38.549Z,796
2017-11-07T07:09:48.989Z,804
2017-11-07T07:10:59.428Z,780
2017-11-07T07:12:09.549Z,876
2017-11-07T07:13:20.029Z,996
2017-11-07T07:14:30.486Z,952
2017-11-07T07:15:41.199Z,1044
2017-11-07T07:16:51.674Z,1096
2017-11-07T07:18:02.116Z,1068
2017-11-07T07:19:12.575Z,1192
2017-11-07T07:20:23.133Z,1352
2017-11-07T07:21:33.587Z,1512
2017-11-07T07:22:44.045Z,1540
2017-11-07T07:23:54.514Z,1292
2017-11-07T07:25:04.992Z,1040
2017-11-07T07:26:15.521Z,1004
2017-11-07T07:27:26.153Z,1040
2017-11-07T07:28:36.681Z,1216
2017-11-07T07:29:47.145Z,1392
2017-11-07T07:30:57.581Z,1732
2017-11-07T07:32:08.013Z,1616
2017-11-07T07:33:18.465Z,1672
2017-11-07T07:34:28.946Z,1320
2017-11-07T07:35:39.393Z,1192
2017-11-07T07:36:49.861Z,1364
2017-11-07T07:38:00.383Z,1640
2017-11-07T07:39:10.845Z,1868
2017-11-07T07:40:21.299Z,1832
2017-11-07T07:41:31.743Z,1576
2017-11-07T07:42:42.213Z,1936
2017-11-07T07:43:52.686Z,1976
2017-11-07T07:45:03.144Z,1980
2017-11-07T07:46:13.606Z,1632
2017-11-07T07:47:24.109Z,1424
2017-11-07T07:48:34.588Z,1452
2017-11-07T07:49:46.006Z,1544
2017-11-07T07:50:56.447Z,1524
2017-11-07T07:52:06.906Z,1572
2017-11-07T07:53:17.456Z,1708
2017-11-07T07:54:27.894Z,1620
2017-11-07T07:55:38.486Z,1692
2017-11-07T07:56:49.174Z,2012
2017-11-07T07:57:59.666Z,2020
2017-11-07T07:59:10.214Z,2256
2017-11-07T08:00:20.668Z,2392
2017-11-07T08:01:30.692Z,2084
2017-11-07T08:02:41.189Z,2328
2017-11-07T08:03:51.247Z,1748
2017-11-07T08:05:01.417Z,1932
2017-11-07T08:06:11.858Z,2452
2017-11-07T08:07:22.334Z,1964
2017-11-07T08:08:32.904Z,1828
2017-11-07T08:09:43.444Z,2928
2017-11-07T08:10:53.907Z,4064
2017-11-07T08:12:04.195Z,3256
2017-11-07T08:13:14.807Z,2296
2017-11-07T08:14:25.270Z,2288
2017-11-07T08:15:35.709Z,1808
2017-11-07T08:16:45.513Z,2204
2017-11-07T08:17:55.714Z,1868
2017-11-07T08:19:06.153Z,2412
2017-11-07T08:20:16.273Z,3896
2017-11-07T08:21:26.776Z,2828
2017-11-07T08:22:37.239Z,2412
2017-11-07T08:23:47.394Z,2584
2017-11-07T08:24:57.428Z,2916
2017-11-07T08:26:07.863Z,2348
2017-11-07T08:27:18.431Z,2164
2017-11-07T08:28:29.937Z,2260
2017-11-07T08:29:40.143Z,2616
2017-11-07T08:30:50.599Z,3232
2017-11-07T08:32:01.048Z,4276
2017-11-07T08:33:11.571Z,4368
2017-11-07T08:34:22.116Z,4664
2017-11-07T08:35:32.568Z,4872
2017-11-07T08:36:42.796Z,6656
2017-11-07T08:37:53.324Z,8808
2017-11-07T08:39:03.878Z,6248
2017-11-07T08:40:14.365Z,6080
2017-11-07T08:41:24.804Z,5252
2017-11-07T08:42:35.871Z,4724
2017-11-07T08:43:46.512Z,3944
2017-11-07T08:44:57.075Z,4044
2017-11-07T08:46:07.577Z,5164
2017-11-07T08:47:17.600Z,6984
2017-11-07T08:48:28.064Z,6960
2017-11-07T08:49:38.528Z,4396
2017-11-07T08:50:48.639Z,4164
2017-11-07T08:51:59.135Z,5368
2017-11-07T08:53:09.589Z,4344
2017-11-07T08:54:20.017Z,3176
2017-11-07T08:55:30.217Z,2872
2017-11-07T08:56:40.784Z,4608
2017-11-07T08:57:51.247Z,3640
2017-11-07T08:59:01.719Z,3296
2017-11-07T09:00:12.150Z,5056
2017-11-07T09:01:22.650Z,3604
2017-11-07T09:02:33.133Z,4684
2017-11-07T09:03:43.614Z,5264
2017-11-07T09:04:55.065Z,3520
2017-11-07T09:06:05.534Z,5164
2017-11-07T09:07:15.986Z,4400
2017-11-07T09:08:26.502Z,4072
2017-11-07T09:09:36.956Z,3836
2017-11-07T09:10:48.368Z,5664
2017-11-07T09:11:59.000Z,6320
2017-11-07T09:13:09.580Z,5296
2017-11-07T09:14:20.009Z,5216
2017-11-07T09:15:30.551Z,4840
2017-11-07T09:16:41.013Z,5424
2017-11-07T09:17:51.471Z,6360
2017-11-07T09:19:01.945Z,6096
2017-11-07T09:20:12.391Z,5512
2017-11-07T09:21:22.882Z,6148
2017-11-07T09:22:33.381Z,6936
2017-11-07T09:23:43.844Z,5836
2017-11-07T09:24:54.298Z,5208
2017-11-07T09:26:04.745Z,5124
2017-11-07T09:27:14.900Z,5448
2017-11-07T09:28:25.056Z,4024
2017-11-07T09:29:35.581Z,2996
2017-11-07T09:30:46.018Z,3204
2017-11-07T09:31:56.566Z,3640
2017-11-07T09:33:06.714Z,3552
2017-11-07T09:34:17.183Z,3180
2017-11-07T09:35:27.674Z,3296
2017-11-07T09:36:38.138Z,4252
2017-11-07T09:37:48.647Z,4000
2017-11-07T09:38:58.849Z,4460
2017-11-07T09:40:09.215Z,4808
2017-11-07T09:41:19.700Z,4688
2017-11-07T09:42:30.205Z,4256
2017-11-07T09:43:40.630Z,5524
2017-11-07T09:44:51.089Z,6140
2017-11-07T09:46:01.537Z,5548
2017-11-07T09:47:12.008Z,5680
2017-11-07T09:48:22.460Z,6032
2017-11-07T09:49:32.949Z,6324
2017-11-07T09:50:43.540Z,5288
2017-11-07T09:51:54.595Z,4924
2017-11-07T09:53:05.075Z,5428
2017-11-07T09:54:15.632Z,5672
2017-11-07T09:55:26.069Z,6040
2017-11-07T09:56:36.092Z,5740
2017-11-07T09:57:46.553Z,6596
2017-11-07T09:58:57.256Z,5844
2017-11-07T10:00:07.769Z,8064
2017-11-07T10:01:17.880Z,8888
2017-11-07T10:02:28.351Z,7820
2017-11-07T10:03:38.786Z,7428
2017-11-07T10:04:49.305Z,7104
2017-11-07T10:05:59.877Z,7108
2017-11-07T10:07:10.320Z,7244
2017-11-07T10:08:20.920Z,7456
2017-11-07T10:09:31.470Z,6140
2017-11-07T10:10:41.910Z,5064
2017-11-07T10:11:52.381Z,4628
2017-11-07T10:13:02.495Z,5588
2017-11-07T10:14:13.076Z,4980
2017-11-07T10:15:23.192Z,5804
2017-11-07T10:16:33.647Z,9212
2017-11-07T10:17:44.311Z,8872
2017-11-07T10:18:54.921Z,8544
2017-11-07T10:20:05.193Z,7836
2017-11-07T10:21:15.678Z,7896
2017-11-07T10:22:26.131Z,7364
2017-11-07T10:23:36.603Z,6532
2017-11-07T10:24:46.718Z,7128
2017-11-07T10:25:57.461Z,7312
2017-11-07T10:27:07.911Z,6808
2017-11-07T10:28:18.351Z,7216
2017-11-07T10:29:28.509Z,7948
2017-11-07T10:30:39.189Z,8812
2017-11-07T10:31:49.662Z,7600
2017-11-07T10:32:59.842Z,10492
2017-11-07T10:34:10.287Z,10192
2017-11-07T10:35:20.748Z,9844
2017-11-07T10:36:31.227Z,9488
2017-11-07T10:37:41.758Z,9956
2017-11-07T10:38:52.206Z,10112
2017-11-07T10:40:02.991Z,8300
2017-11-07T10:41:13.466Z,9228
2017-11-07T10:42:24.028Z,9316
2017-11-07T10:43:34.497Z,6876
2017-11-07T10:44:44.966Z,5236
2017-11-07T10:45:54.996Z,5108
2017-11-07T10:47:05.116Z,4480
2017-11-07T10:48:15.602Z,6132
2017-11-07T10:49:25.628Z,6928
2017-11-07T10:50:36.132Z,6204
2017-11-07T10:51:46.578Z,6548
2017-11-07T10:52:57.054Z,6384
2017-11-07T10:54:07.738Z,6860
2017-11-07T10:55:17.441Z,6380
2017-11-07T10:56:27.926Z,7080
2017-11-07T10:57:38.383Z,8652
2017-11-07T10:58:48.882Z,8748
2017-11-07T10:59:59.393Z,8440
2017-11-07T11:01:09.832Z,7824
2017-11-07T11:02:20.335Z,7684
2017-11-07T11:03:30.572Z,6916
2017-11-07T11:04:41.021Z,6780
2017-11-07T11:05:51.380Z,6628
2017-11-07T11:07:01.848Z,8560
2017-11-07T11:08:12.420Z,10200
2017-11-07T11:09:22.853Z,9204
2017-11-07T11:10:33.412Z,6860
2017-11-07T11:11:43.941Z,6696
2017-11-07T11:12:54.408Z,7740
2017-11-07T11:14:04.863Z,7288
2017-11-07T11:15:15.319Z,5960
2017-11-07T11:16:25.783Z,4848
2017-11-07T11:17:36.252Z,5176
2017-11-07T11:18:46.711Z,8100
2017-11-07T11:19:57.216Z,7456
2017-11-07T11:21:08.670Z,5836
2017-11-07T11:22:19.116Z,4888
2017-11-07T11:23:29.251Z,4736
2017-11-07T11:24:39.999Z,5520
2017-11-07T11:25:50.636Z,5852
2017-11-07T11:27:01.076Z,7272
2017-11-07T11:28:11.247Z,6696
2017-11-07T11:29:21.941Z,6228
2017-11-07T11:30:32.404Z,5144
2017-11-07T11:31:42.840Z,4740
2017-11-07T11:32:53.265Z,4412
2017-11-07T11:34:03.400Z,4508
2017-11-07T11:35:13.941Z,4424
2017-11-07T11:36:24.216Z,5356
2017-11-07T11:37:34.656Z,5672
2017-11-07T11:38:44.783Z,5276
2017-11-07T11:39:55.285Z,4872
2017-11-07T11:41:05.842Z,5676
2017-11-07T11:42:16.326Z,6132
2017-11-07T11:43:26.841Z,5272
2017-11-07T11:44:37.276Z,5432
2017-11-07T11:45:47.740Z,6180
2017-11-07T11:46:58.191Z,5704
2017-11-07T11:48:08.735Z,5720
2017-11-07T11:49:19.223Z,5124
2017-11-07T11:50:29.742Z,4928
2017-11-07T11:51:40.255Z,5592
2017-11-07T11:52:50.377Z,5488
2017-11-07T11:54:00.848Z,5284
2017-11-07T11:55:11.296Z,5588
2017-11-07T11:56:21.881Z,5440
2017-11-07T11:57:32.416Z,4980
2017-11-07T11:58:42.887Z,5180
2017-11-07T11:59:53.456Z,5648
2017-11-07T12:01:03.931Z,5804
2017-11-07T12:02:14.430Z,5376
2017-11-07T12:03:24.902Z,4800
2017-11-07T12:04:35.369Z,4812
2017-11-07T12:05:45.878Z,4788
2017-11-07T12:06:56.032Z,5436
2017-11-07T12:08:06.499Z,4964
2017-11-07T12:09:17.189Z,4796
2017-11-07T12:10:27.779Z,4976
2017-11-07T12:11:38.220Z,5700
2017-11-07T12:12:48.845Z,5564
2017-11-07T12:13:59.544Z,5836
2017-11-07T12:15:10.018Z,5604
2017-11-07T12:16:20.479Z,5516
2017-11-07T12:17:31.051Z,5328
2017-11-07T12:18:41.579Z,6040
2017-11-07T12:19:52.057Z,6260
2017-11-07T12:21:02.515Z,6568
2017-11-07T12:22:12.978Z,6664
2017-11-07T12:23:23.461Z,6792
2017-11-07T12:24:34.084Z,7188
2017-11-07T12:25:44.768Z,7628
2017-11-07T12:26:55.261Z,7340
2017-11-07T12:28:05.822Z,6436
2017-11-07T12:29:15.987Z,6828
2017-11-07T12:30:26.655Z,6744
2017-11-07T12:31:37.350Z,6856
2017-11-07T12:32:47.860Z,7192
2017-11-07T12:33:58.348Z,7476
2017-11-07T12:35:08.460Z,7168
2017-11-07T12:36:18.889Z,7324
2017-11-07T12:37:29.168Z,7732
2017-11-07T12:38:39.647Z,7924
2017-11-07T12:39:50.090Z,8288
2017-11-07T12:41:00.556Z,9284
2017-11-07T12:42:10.591Z,10500
2017-11-07T12:43:21.053Z,10988
2017-11-07T12:44:31.163Z,10800
2017-11-07T12:45:41.871Z,9540
2017-11-07T12:46:52.609Z,9300
2017-11-07T12:48:03.072Z,9624
2017-11-07T12:49:13.577Z,10072
2017-11-07T12:50:24.105Z,10216
2017-11-07T12:51:34.579Z,9532
2017-11-07T12:52:45.072Z,8188
2017-11-07T12:53:55.546Z,7312
2017-11-07T12:55:06.105Z,6268
2017-11-07T12:56:17.524Z,5432
2017-11-07T12:57:27.565Z,5012
2017-11-07T12:58:38.282Z,4744
2017-11-07T12:59:48.820Z,4432
2017-11-07T13:00:59.290Z,4296
2017-11-07T13:02:09.737Z,4356
2017-11-07T13:03:20.193Z,4448
2017-11-07T13:04:30.676Z,4324
2017-11-07T13:05:41.825Z,4784
2017-11-07T13:06:52.272Z,5272
2017-11-07T13:08:02.732Z,5504
2017-11-07T13:09:13.183Z,6064
2017-11-07T13:10:23.653Z,6164
2017-11-07T13:11:35.102Z,6188
2017-11-07T13:12:45.234Z,6248
2017-11-07T13:13:55.245Z,6328
2017-11-07T13:15:05.704Z,6524
2017-11-07T13:16:15.898Z,7012
2017-11-07T13:17:26.387Z,7972
2017-11-07T13:18:36.838Z,8668
2017-11-07T13:19:47.176Z,8740
2017-11-07T13:20:57.735Z,8940
2017-11-07T13:22:08.201Z,9260
2017-11-07T13:23:18.667Z,9968
2017-11-07T13:24:29.097Z,9724
2017-11-07T13:25:39.576Z,9704
2017-11-07T13:26:49.800Z,9364
2017-11-07T13:28:00.272Z,9332
2017-11-07T13:29:10.704Z,9532
2017-11-07T13:30:21.145Z,9936
2017-11-07T13:31:31.616Z,10312
2017-11-07T13:32:42.089Z,9948
2017-11-07T13:33:52.583Z,9672
2017-11-07T13:35:03.041Z,9772
2017-11-07T13:36:13.505Z,9560
2017-11-07T13:37:23.971Z,9508
2017-11-07T13:38:34.085Z,9480
2017-11-07T13:39:44.585Z,9060
2017-11-07T13:40:54.849Z,9184
2017-11-07T13:42:05.283Z,8560
2017-11-07T13:43:15.788Z,8140
2017-11-07T13:44:26.274Z,8076
2017-11-07T13:45:36.749Z,7252
2017-11-07T13:46:47.187Z,6796
2017-11-07T13:47:57.657Z,6620
2017-11-07T13:49:07.795Z,6672
2017-11-07T13:50:17.948Z,7232
2017-11-07T13:51:28.753Z,8324
2017-11-07T13:52:39.237Z,8512
2017-11-07T13:53:49.729Z,8800
2017-11-07T13:55:00.431Z,8240
2017-11-07T13:56:10.869Z,8056
2017-11-07T13:57:21.599Z,7052
2017-11-07T13:58:32.047Z,7716
2017-11-07T13:59:42.504Z,7880
2017-11-07T14:00:53.062Z,7608
2017-11-07T14:02:03.564Z,7564
2017-11-07T14:03:14.120Z,7620
2017-11-07T14:04:24.766Z,7340
2017-11-07T14:05:35.209Z,6860
2017-11-07T14:06:45.782Z,6912
2017-11-07T14:07:56.250Z,6956
2017-11-07T14:09:06.708Z,6816
2017-11-07T14:10:17.192Z,6536
2017-11-07T14:11:27.307Z,6640
2017-11-07T14:12:37.947Z,6292
2017-11-07T14:13:48.411Z,6204
2017-11-07T14:14:58.849Z,6264
2017-11-07T14:16:09.303Z,6416
2017-11-07T14:17:19.800Z,6752
2017-11-07T14:18:30.483Z,5248
2017-11-07T14:19:41.029Z,6444
2017-11-07T14:20:51.481Z,9492
2017-11-07T14:22:01.933Z,8940
2017-11-07T14:23:12.405Z,7484
2017-11-07T14:24:22.432Z,6828
2017-11-07T14:25:32.883Z,5220
2017-11-07T14:26:43.467Z,4660
2017-11-07T14:27:54.006Z,3692
2017-11-07T14:29:04.680Z,3104
2017-11-07T14:30:15.147Z,2792
2017-11-07T14:31:25.604Z,2472
2017-11-07T14:32:36.071Z,2192
2017-11-07T14:33:46.559Z,2128
2017-11-07T14:34:57.059Z,2096
2017-11-07T14:36:07.545Z,1920
2017-11-07T14:37:17.985Z,1720
2017-11-07T14:38:28.509Z,1584
2017-11-07T14:39:38.970Z,1420
2017-11-07T14:40:49.110Z,1300
2017-11-07T14:41:59.560Z,1216
2017-11-07T14:43:10.032Z,1188
2017-11-07T14:44:21.446Z,1192
2017-11-07T14:45:31.888Z,1180
2017-11-07T14:46:42.290Z,1232
2017-11-07T14:47:52.448Z,1292
2017-11-07T14:49:02.988Z,1388
2017-11-07T14:50:13.438Z,1440
2017-11-07T14:51:23.994Z,1416
2017-11-07T14:52:34.481Z,1360
2017-11-07T14:53:44.943Z,1312
2017-11-07T14:54:55.385Z,1208
2017-11-07T14:56:05.564Z,1092
2017-11-07T14:57:16.036Z,972
2017-11-07T14:58:26.550Z,848
2017-11-07T14:59:37.194Z,736
2017-11-07T15:00:47.714Z,636
2017-11-07T15:01:57.895Z,580
2017-11-07T15:03:07.952Z,512
2017-11-07T15:04:18.395Z,472
2017-11-07T15:05:28.891Z,448
2017-11-07T15:06:39.067Z,468
2017-11-07T15:07:49.515Z,472
2017-11-07T15:08:59.991Z,480
2017-11-07T15:10:10.440Z,464
2017-11-07T15:11:20.907Z,444
2017-11-07T15:12:31.548Z,416
2017-11-07T15:13:42.002Z,400
2017-11-07T15:14:52.666Z,376
2017-11-07T15:16:03.140Z,352
2017-11-07T15:17:13.715Z,316
2017-11-07T15:18:24.281Z,284
2017-11-07T15:19:34.741Z,260
2017-11-07T15:20:45.126Z,232
2017-11-07T15:21:55.608Z,204
2017-11-07T15:23:06.132Z,192
2017-11-07T15:24:16.603Z,172
2017-11-07T15:25:26.750Z,164
2017-11-07T15:26:37.232Z,160
2017-11-07T15:27:47.677Z,160
2017-11-07T15:28:58.147Z,152
2017-11-07T15:30:08.587Z,132
2017-11-07T15:31:19.062Z,112
2017-11-07T15:32:29.507Z,96
2017-11-07T15:33:39.476Z,80
2017-11-07T15:34:49.680Z,72
2017-11-07T15:36:00.199Z,72
2017-11-07T15:37:10.247Z,72
2017-11-07T15:38:20.722Z,68
2017-11-07T15:39:31.185Z,60
2017-11-07T15:40:41.626Z,60
2017-11-07T15:41:51.669Z,56
2017-11-07T15:43:02.104Z,48
2017-11-07T15:44:12.550Z,40
2017-11-07T15:45:23.002Z,32
2017-11-07T15:46:33.525Z,28
2017-11-07T15:47:43.698Z,20
2017-11-07T15:48:54.144Z,20
2017-11-07T15:50:04.670Z,20
2017-11-07T15:51:15.137Z,16
2017-11-07T15:52:25.262Z,16
2017-11-07T15:53:35.376Z,12
2017-11-07T15:54:45.927Z,12
2017-11-07T15:55:56.626Z,8
2017-11-07T15:57:07.095Z,12
2017-11-07T15:58:17.624Z,4
2017-11-07T15:59:28.089Z,4
2017-11-07T16:00:38.604Z,4
2017-11-07T16:01:48.774Z,4
2017-11-07T16:02:59.252Z,0
2017-11-07T16:04:09.693Z,4
2017-11-07T16:05:20.622Z,0
2017-11-07T16:06:31.095Z,0
2017-11-07T16:07:41.560Z,0
2017-11-07T16:08:53.049Z,0
2017-11-07T16:10:03.209Z,0
2017-11-07T16:11:13.336Z,0
2017-11-07T16:12:23.553Z,0
2017-11-07T16:13:33.706Z,0
2017-11-07T16:14:44.229Z,0
2017-11-07T16:15:54.688Z,0
2017-11-07T16:17:05.227Z,0
2017-11-07T16:18:15.685Z,0
2017-11-07T16:19:25.914Z,0
2017-11-07T16:20:36.423Z,0
2017-11-07T16:21:47.043Z,0